TS Echo — V7RS5 — position and weather

sailwx.info

Track history (hours):
 
Tides and Currents Weather Stations Pressure Air Temp Water Temp Dewpoint Dewpoint Depression Visibility Wind Speed Wind Dir Waves Ship Positions

TS Echo

Last reported at 2018-Jul-14 02:48 UTC. Time now 2018-Sep-23 04:21 UTC.
Position N 48°20' W 006°23'.
Warning: this ship's position is months out of date.

Length 182 m; draft 9.8 m.

Type: Cargo ship. MMSI: 538006823.

Date/timePositionNaut miles runAvg speedWind from/ knotsBaromVisibWave heightAir tempDewpointWater temp
2018-Jul-14 02:48N 48°20' W 006°23'2212.4
2018-Jul-14 01:01N 48°38' W 006°03'613.4
2018-Jul-14 00:33N 48°43' W 005°58'513.8
2018-Jul-14 00:11N 48°47' W 005°55'414.2
2018-Jul-13 23:52N 48°51' W 005°51'714.5
2018-Jul-13 23:24N 48°55' W 005°43'915.4
2018-Jul-13 22:48N 49°00' W 005°31'515.5
2018-Jul-13 22:30N 49°03' W 005°25'1115.4
2018-Jul-13 21:48N 49°09' W 005°11'515.2
2018-Jul-13 21:29N 49°12' W 005°05'914.9
2018-Jul-13 20:52N 49°17' W 004°54'4612.9
2018-Jul-13 17:17N 49°40' W 003°53'312.1
2018-Jul-13 17:00N 49°42' W 003°48'812.5
2018-Jul-13 16:23N 49°46' W 003°38'513.2
2018-Jul-13 16:00N 49°48' W 003°31'714.1
2018-Jul-13 15:30N 49°52' W 003°21'714.6
2018-Jul-13 15:00N 49°55' W 003°11'1615.7
2018-Jul-13 14:00N 49°60' W 002°48'816.5
2018-Jul-13 13:30N 50°02' W 002°36'816.9
2018-Jul-13 13:00N 50°05' W 002°23'1016.7
2018-Jul-13 12:24N 50°08' W 002°08'816.0
2018-Jul-13 11:54N 50°10' W 001°56'615.0
2018-Jul-13 11:30N 50°12' W 001°47'814.1
2018-Jul-13 10:54N 50°14' W 001°34'513.0
2018-Jul-13 10:30N 50°15' W 001°27'612.2
2018-Jul-13 10:00N 50°17' W 001°17'611.3
2018-Jul-13 09:30N 50°19' W 001°09'510.2
2018-Jul-13 09:00N 50°20' W 001°01'5 9.8
2018-Jul-13 08:30N 50°22' W 000°54'5 9.6
2018-Jul-13 08:00N 50°23' W 000°47'510.0
2018-Jul-13 07:30N 50°24' W 000°39'510.5
2018-Jul-13 07:00N 50°26' W 000°31'611.7
2018-Jul-13 06:30N 50°27' W 000°22'712.9
2018-Jul-13 05:58N 50°29' W 000°12'613.5
2018-Jul-13 05:30N 50°31' W 000°02'714.2
2018-Jul-13 05:00N 50°32' E 000°09'714.7
2018-Jul-13 04:30N 50°34' E 000°20'815.4
2018-Jul-13 04:00N 50°36' E 000°31'714.9
2018-Jul-13 03:30N 50°39' E 000°42'714.8
2018-Jul-13 03:00N 50°44' E 000°51'714.1
2018-Jul-13 02:30N 50°49' E 000°60'713.5
2018-Jul-13 01:58N 50°54' E 001°08'612.9
2018-Jul-13 01:30N 50°58' E 001°15'611.7
2018-Jul-13 01:00N 51°01' E 001°22'511.1
2018-Jul-13 00:30N 51°05' E 001°29'510.3
2018-Jul-13 00:00N 51°08' E 001°35'510.6
2018-Jul-12 23:30N 51°11' E 001°42'611.2
2018-Jul-12 23:00N 51°16' E 001°47'612.3
2018-Jul-12 22:30N 51°21' E 001°53'613.0
2018-Jul-12 22:00N 51°26' E 001°59'714.2
2018-Jul-12 21:30N 51°32' E 002°06'714.7
2018-Jul-12 21:00N 51°37' E 002°14'815.1
2018-Jul-12 20:30N 51°43' E 002°22'815.3
2018-Jul-12 20:00N 51°49' E 002°29'815.3
2018-Jul-12 19:31N 51°55' E 002°37'815.1
2018-Jul-12 19:00N 52°01' E 002°45'815.0
2018-Jul-12 18:30N 52°06' E 002°53'714.4
2018-Jul-12 18:00N 52°12' E 003°01'714.1
2018-Jul-12 17:30N 52°19' E 003°03'713.8
2018-Jul-12 17:00N 52°26' E 003°05'612.8
2018-Jul-12 16:30N 52°32' E 003°07'612.6
2018-Jul-12 15:59N 52°38' E 003°09'612.3
2018-Jul-12 15:30N 52°44' E 003°11'711.9
2018-Jul-12 14:57N 52°51' E 003°13'512.0
2018-Jul-12 14:30N 52°56' E 003°16'611.8
2018-Jul-12 14:00N 53°01' E 003°19'712.0
2018-Jul-12 13:26N 53°08' E 003°22'612.5
2018-Jul-12 12:56N 53°14' E 003°25'812.8
2018-Jul-12 12:19N 53°21' E 003°29'413.2
2018-Jul-12 12:00N 53°25' E 003°31'3813.1
2018-Jul-12 09:07N 53°56' E 004°09'213.5
2018-Jul-12 09:00N 53°57' E 004°11'2613.1
2018-Jul-12 07:00N 54°16' E 004°41'613.0
2018-Jul-12 06:30N 54°22' E 004°47'1513.0
2018-Jul-12 05:21N 54°34' E 005°01'713.1
2018-Jul-12 04:48N 54°40' E 005°08'413.1
2018-Jul-12 04:30N 54°43' E 005°12'2413.5
2018-Jul-12 02:41N 55°04' E 005°36'513.6
2018-Jul-12 02:21N 55°07' E 005°40'513.6
2018-Jul-12 02:00N 55°12' E 005°44'18013.2
2018-Jul-11 12:25N 57°35' E 008°59'513.0
2018-Jul-11 12:01N 57°38' E 009°08'612.9
2018-Jul-11 11:31N 57°39' E 009°20'612.9
2018-Jul-11 11:01N 57°42' E 009°31'612.5
2018-Jul-11 10:31N 57°43' E 009°42'612.4
2018-Jul-11 10:01N 57°45' E 009°54'612.5
2018-Jul-11 09:30N 57°47' E 010°05'612.6
2018-Jul-11 09:01N 57°48' E 010°16'612.9
2018-Jul-11 08:31N 57°48' E 010°29'713.1
2018-Jul-11 08:00N 57°48' E 010°41'713.1
2018-Jul-11 07:31N 57°45' E 010°52'713.8
2018-Jul-11 07:00N 57°41' E 011°01'713.6
2018-Jul-11 06:30N 57°36' E 011°10'713.4
2018-Jul-11 06:00N 57°31' E 011°19'713.0
2018-Jul-11 05:30N 57°26' E 011°26'613.0
2018-Jul-11 05:00N 57°20' E 011°30'712.9
2018-Jul-11 04:30N 57°14' E 011°35'612.7
2018-Jul-11 04:00N 57°08' E 011°39'612.7
2018-Jul-11 03:30N 57°02' E 011°43'612.7
2018-Jul-11 03:00N 56°56' E 011°47'612.8
2018-Jul-11 02:30N 56°50' E 011°50'612.0
2018-Jul-11 02:00N 56°44' E 011°52'713.6
2018-Jul-11 01:30N 56°38' E 011°46'8711.6
2018-Jul-10 18:02N 55°14' E 011°06'112.5
2018-Jul-10 17:58N 55°13' E 011°06'612.8
2018-Jul-10 17:30N 55°08' E 011°03'612.7
2018-Jul-10 17:00N 55°01' E 011°02'612.1
2018-Jul-10 16:30N 54°56' E 010°56'612.6
2018-Jul-10 16:00N 54°50' E 010°52'510.6
2018-Jul-10 15:30N 54°45' E 010°52'510.5
2018-Jul-10 15:00N 54°40' E 010°57'713.2
2018-Jul-10 14:30N 54°37' E 011°07'713.1
2018-Jul-10 14:00N 54°34' E 011°17'713.1
2018-Jul-10 13:30N 54°31' E 011°27'713.3
2018-Jul-10 13:00N 54°29' E 011°38'713.2
2018-Jul-10 12:30N 54°26' E 011°49'713.8
2018-Jul-10 12:00N 54°26' E 012°00'9912.0
2018-Jul-10 03:45N 54°40' E 014°49'9513.2
2018-Jul-09 20:31N 54°56' E 017°32'012.6
2018-Jul-09 20:30N 54°56' E 017°32'1812.9
2018-Jul-09 19:06N 54°58' E 018°04'113.0
2018-Jul-09 19:00N 54°58' E 018°06'712.9
2018-Jul-09 18:27N 54°58' E 018°18'612.9
2018-Jul-09 18:00N 54°58' E 018°29'713.0
2018-Jul-09 17:30N 54°57' E 018°40'713.2
2018-Jul-09 17:00N 54°55' E 018°50'713.1
2018-Jul-09 16:30N 54°52' E 019°01'612.9
2018-Jul-09 16:00N 54°50' E 019°12'712.6
2018-Jul-09 15:29N 54°48' E 019°22'712.8
2018-Jul-09 14:59N 54°45' E 019°33'612.9
2018-Jul-09 14:30N 54°43' E 019°42'612.3
2018-Jul-09 14:00N 54°39' E 019°51'3 5.9
2018-Jul-09 13:30N 54°38' E 019°56'3 6.1
2018-Jul-09 12:58N 54°38' E 020°01'7 1.5
2018-Jul-09 08:17N 54°41' E 020°13'0 0.0
2018-Jul-09 07:53N 54°41' E 020°13'0 0.0
2018-Jul-09 07:23N 54°41' E 020°13'0 0.0
2018-Jul-09 06:26N 54°41' E 020°13'0 0.0
2018-Jul-09 05:59N 54°41' E 020°13'0 0.0
2018-Jul-09 05:17N 54°41' E 020°13'0 0.0
2018-Jul-09 04:53N 54°41' E 020°13'0 0.0
2018-Jul-09 04:29N 54°41' E 020°13'0 0.0
2018-Jul-09 02:32N 54°41' E 020°13'0 0.1
2018-Jul-09 02:29N 54°41' E 020°13'0 0.0
2018-Jul-09 01:50N 54°41' E 020°13'0 0.0
2018-Jul-09 01:26N 54°41' E 020°13'0 0.0
2018-Jul-09 00:53N 54°41' E 020°13'0 0.0
2018-Jul-08 23:38N 54°41' E 020°13'0 0.0
2018-Jul-08 23:11N 54°41' E 020°13'0 0.0
2018-Jul-08 22:59N 54°41' E 020°13'0 0.0
2018-Jul-08 22:26N 54°41' E 020°13'0 0.0
2018-Jul-08 21:47N 54°41' E 020°13'0 0.0
2018-Jul-08 21:29N 54°41' E 020°13'0 0.0
2018-Jul-08 18:41N 54°41' E 020°13'0 0.0
2018-Jul-08 18:23N 54°41' E 020°13'0 0.0
2018-Jul-08 17:59N 54°41' E 020°13'0 0.0
2018-Jul-08 17:23N 54°41' E 020°13'0 0.0
2018-Jul-08 16:56N 54°41' E 020°13'0 0.0
2018-Jul-08 16:29N 54°41' E 020°13'0 0.0
2018-Jul-08 15:59N 54°41' E 020°13'0 0.0
2018-Jul-08 15:29N 54°41' E 020°13'0 0.0
2018-Jul-08 14:59N 54°41' E 020°13'0 0.0
2018-Jul-08 14:26N 54°41' E 020°13'0 0.0
2018-Jul-08 13:59N 54°41' E 020°13'0 0.0
2018-Jul-08 13:29N 54°41' E 020°13'0 0.0
2018-Jul-08 12:50N 54°41' E 020°13'0 0.0
2018-Jul-08 12:29N 54°41' E 020°13'0 0.0
2018-Jul-08 11:59N 54°41' E 020°13'0 0.0
2018-Jul-08 11:29N 54°41' E 020°13'0 0.0
2018-Jul-08 10:59N 54°41' E 020°13'0 0.0
2018-Jul-08 10:29N 54°41' E 020°13'0 0.0
2018-Jul-08 08:56N 54°41' E 020°13'0 0.0
2018-Jul-08 06:35N 54°41' E 020°13'0 0.0
2018-Jul-08 06:20N 54°41' E 020°13'0 0.0
2018-Jul-08 05:47N 54°41' E 020°13'0 0.0
2018-Jul-08 05:23N 54°41' E 020°13'0 0.0
2018-Jul-08 04:59N 54°41' E 020°13'0 0.0
2018-Jul-08 04:26N 54°41' E 020°13'0 0.0
2018-Jul-08 03:59N 54°41' E 020°13'0 0.0
2018-Jul-08 03:29N 54°41' E 020°13'0 0.0
2018-Jul-08 02:59N 54°41' E 020°13'0 0.0
2018-Jul-08 02:29N 54°41' E 020°13'0 0.0
2018-Jul-08 01:50N 54°41' E 020°13'0 0.0
2018-Jul-07 07:40N 54°41' E 020°13'0 0.0
2018-Jul-07 07:20N 54°41' E 020°13'0 0.0
2018-Jul-07 06:35N 54°41' E 020°13'0 0.0
2018-Jul-07 06:08N 54°41' E 020°13'0 0.0
2018-Jul-07 05:50N 54°41' E 020°13'0 0.0
2018-Jul-07 03:22N 54°41' E 020°13'0 0.0
2018-Jul-07 02:41N 54°41' E 020°13'0 0.0
2018-Jul-07 02:26N 54°41' E 020°13'0 0.0
2018-Jul-07 01:49N 54°41' E 020°13'0 0.0
2018-Jul-07 01:28N 54°41' E 020°13'0 0.0
2018-Jul-07 00:38N 54°41' E 020°13'0 0.0
2018-Jul-07 00:29N 54°41' E 020°13'0 0.0
2018-Jul-06 04:55N 54°41' E 020°13'0 0.0
2018-Jul-06 04:28N 54°41' E 020°13'0 0.0
2018-Jul-06 02:25N 54°41' E 020°13'0 0.0
2018-Jul-06 01:31N 54°41' E 020°13'0 0.0
2018-Jul-06 00:43N 54°41' E 020°13'0 0.0
2018-Jul-06 00:28N 54°41' E 020°13'0 0.0
2018-Jul-05 23:58N 54°41' E 020°13'0 0.0
2018-Jul-05 23:28N 54°41' E 020°13'0 0.0
2018-Jul-05 11:59N 54°41' E 020°12'0 0.0
2018-Jul-05 11:23N 54°41' E 020°12'0 0.0
2018-Jul-05 10:59N 54°41' E 020°12'0 0.0
2018-Jul-05 07:47N 54°41' E 020°12'0 0.0
2018-Jul-05 07:26N 54°41' E 020°12'0 0.0
2018-Jul-05 06:26N 54°41' E 020°12'0 0.0
2018-Jul-05 05:50N 54°41' E 020°12'0 0.0
2018-Jul-05 05:29N 54°41' E 020°12'0 0.0
2018-Jul-05 04:59N 54°41' E 020°12'0 0.0
2018-Jul-05 04:29N 54°41' E 020°12'0 0.0
2018-Jul-05 03:59N 54°41' E 020°12'0 0.0
2018-Jul-05 03:26N 54°41' E 020°12'0 0.0
2018-Jul-05 02:53N 54°41' E 020°12'0 0.0
2018-Jul-05 02:29N 54°41' E 020°12'0 0.0
2018-Jul-05 01:53N 54°41' E 020°12'0 0.0
2018-Jul-05 01:17N 54°41' E 020°12'0 0.0
2018-Jul-05 00:41N 54°41' E 020°12'0 0.0
2018-Jul-05 00:29N 54°41' E 020°12'0 0.0
2018-Jul-04 23:47N 54°41' E 020°12'0 0.0
2018-Jul-04 23:29N 54°41' E 020°12'0 0.0
2018-Jul-04 22:59N 54°41' E 020°12'0 0.0
2018-Jul-04 22:29N 54°41' E 020°12'0 0.0
2018-Jul-04 21:59N 54°41' E 020°12'0 0.0
2018-Jul-04 21:26N 54°41' E 020°12'0 0.0
2018-Jul-04 20:53N 54°41' E 020°12'0 0.0
2018-Jul-04 20:29N 54°41' E 020°12'0 0.0
2018-Jul-04 19:35N 54°41' E 020°12'0 0.0
2018-Jul-04 19:29N 54°41' E 020°12'0 0.0
2018-Jul-04 18:59N 54°41' E 020°12'0 0.0
2018-Jul-04 18:29N 54°41' E 020°12'0 0.0
2018-Jul-04 17:59N 54°41' E 020°12'0 0.0
2018-Jul-04 17:29N 54°41' E 020°12'0 0.0
2018-Jul-04 16:41N 54°41' E 020°12'0 0.0
2018-Jul-04 14:05N 54°41' E 020°12'0 0.0
2018-Jul-04 13:59N 54°41' E 020°12'0 0.0
2018-Jul-04 13:29N 54°41' E 020°12'0 0.0
2018-Jul-04 10:47N 54°41' E 020°12'0 0.0
2018-Jul-04 10:23N 54°41' E 020°12'0 0.0
2018-Jul-04 09:47N 54°41' E 020°12'0 0.0
2018-Jul-04 09:29N 54°41' E 020°12'0 0.0
2018-Jul-04 08:59N 54°41' E 020°12'0 0.0
2018-Jul-04 08:23N 54°41' E 020°12'0 0.0
2018-Jul-04 07:59N 54°41' E 020°12'0 0.0
2018-Jul-04 07:29N 54°41' E 020°12'0 0.0
2018-Jul-04 06:53N 54°41' E 020°12'0 0.0
2018-Jul-04 06:29N 54°41' E 020°12'0 0.0
2018-Jul-04 05:47N 54°41' E 020°12'0 0.0
2018-Jul-04 05:14N 54°41' E 020°12'0 0.0
2018-Jul-04 04:59N 54°41' E 020°12'0 0.0
2018-Jul-04 04:23N 54°41' E 020°12'0 0.0
2018-Jul-04 03:56N 54°41' E 020°12'0 0.0
2018-Jul-04 03:29N 54°41' E 020°12'0 0.0
2018-Jul-04 02:59N 54°41' E 020°12'  
Track history (hours):
 
Tides and Currents Weather Stations Pressure Air Temp Water Temp Dewpoint Dewpoint Depression Visibility Wind Speed Wind Dir Waves Ship Positions

TS Echo

Last reported at 2018-Jul-14 02:48 UTC. Time now 2018-Sep-23 04:21 UTC.
Position N 48°20' W 006°23'.
Warning: this ship's position is months out of date.

Length 182 m; draft 9.8 m.

Type: Cargo ship. MMSI: 538006823.

Date/timePositionNaut miles runAvg speedWind from/ knotsBaromVisibWave heightAir tempDewpointWater temp
2018-Jul-14 02:48N 48°20' W 006°23'2212.4
2018-Jul-14 01:01N 48°38' W 006°03'613.4
2018-Jul-14 00:33N 48°43' W 005°58'513.8
2018-Jul-14 00:11N 48°47' W 005°55'414.2
2018-Jul-13 23:52N 48°51' W 005°51'714.5
2018-Jul-13 23:24N 48°55' W 005°43'915.4
2018-Jul-13 22:48N 49°00' W 005°31'515.5
2018-Jul-13 22:30N 49°03' W 005°25'1115.4
2018-Jul-13 21:48N 49°09' W 005°11'515.2
2018-Jul-13 21:29N 49°12' W 005°05'914.9
2018-Jul-13 20:52N 49°17' W 004°54'4612.9
2018-Jul-13 17:17N 49°40' W 003°53'312.1
2018-Jul-13 17:00N 49°42' W 003°48'812.5
2018-Jul-13 16:23N 49°46' W 003°38'513.2
2018-Jul-13 16:00N 49°48' W 003°31'714.1
2018-Jul-13 15:30N 49°52' W 003°21'714.6
2018-Jul-13 15:00N 49°55' W 003°11'1615.7
2018-Jul-13 14:00N 49°60' W 002°48'816.5
2018-Jul-13 13:30N 50°02' W 002°36'816.9
2018-Jul-13 13:00N 50°05' W 002°23'1016.7
2018-Jul-13 12:24N 50°08' W 002°08'816.0
2018-Jul-13 11:54N 50°10' W 001°56'615.0
2018-Jul-13 11:30N 50°12' W 001°47'814.1
2018-Jul-13 10:54N 50°14' W 001°34'513.0
2018-Jul-13 10:30N 50°15' W 001°27'612.2
2018-Jul-13 10:00N 50°17' W 001°17'611.3
2018-Jul-13 09:30N 50°19' W 001°09'510.2
2018-Jul-13 09:00N 50°20' W 001°01'5 9.8
2018-Jul-13 08:30N 50°22' W 000°54'5 9.6
2018-Jul-13 08:00N 50°23' W 000°47'510.0
2018-Jul-13 07:30N 50°24' W 000°39'510.5
2018-Jul-13 07:00N 50°26' W 000°31'611.7
2018-Jul-13 06:30N 50°27' W 000°22'712.9
2018-Jul-13 05:58N 50°29' W 000°12'613.5
2018-Jul-13 05:30N 50°31' W 000°02'714.2
2018-Jul-13 05:00N 50°32' E 000°09'714.7
2018-Jul-13 04:30N 50°34' E 000°20'815.4
2018-Jul-13 04:00N 50°36' E 000°31'714.9
2018-Jul-13 03:30N 50°39' E 000°42'714.8
2018-Jul-13 03:00N 50°44' E 000°51'714.1
2018-Jul-13 02:30N 50°49' E 000°60'713.5
2018-Jul-13 01:58N 50°54' E 001°08'612.9
2018-Jul-13 01:30N 50°58' E 001°15'611.7
2018-Jul-13 01:00N 51°01' E 001°22'511.1
2018-Jul-13 00:30N 51°05' E 001°29'510.3
2018-Jul-13 00:00N 51°08' E 001°35'510.6
2018-Jul-12 23:30N 51°11' E 001°42'611.2
2018-Jul-12 23:00N 51°16' E 001°47'612.3
2018-Jul-12 22:30N 51°21' E 001°53'613.0
2018-Jul-12 22:00N 51°26' E 001°59'714.2
2018-Jul-12 21:30N 51°32' E 002°06'714.7
2018-Jul-12 21:00N 51°37' E 002°14'815.1
2018-Jul-12 20:30N 51°43' E 002°22'815.3
2018-Jul-12 20:00N 51°49' E 002°29'815.3
2018-Jul-12 19:31N 51°55' E 002°37'815.1
2018-Jul-12 19:00N 52°01' E 002°45'815.0
2018-Jul-12 18:30N 52°06' E 002°53'714.4
2018-Jul-12 18:00N 52°12' E 003°01'714.1
2018-Jul-12 17:30N 52°19' E 003°03'713.8
2018-Jul-12 17:00N 52°26' E 003°05'612.8
2018-Jul-12 16:30N 52°32' E 003°07'612.6
2018-Jul-12 15:59N 52°38' E 003°09'612.3
2018-Jul-12 15:30N 52°44' E 003°11'711.9
2018-Jul-12 14:57N 52°51' E 003°13'512.0
2018-Jul-12 14:30N 52°56' E 003°16'611.8
2018-Jul-12 14:00N 53°01' E 003°19'712.0
2018-Jul-12 13:26N 53°08' E 003°22'612.5
2018-Jul-12 12:56N 53°14' E 003°25'812.8
2018-Jul-12 12:19N 53°21' E 003°29'413.2
2018-Jul-12 12:00N 53°25' E 003°31'3813.1
2018-Jul-12 09:07N 53°56' E 004°09'213.5
2018-Jul-12 09:00N 53°57' E 004°11'2613.1
2018-Jul-12 07:00N 54°16' E 004°41'613.0
2018-Jul-12 06:30N 54°22' E 004°47'1513.0
2018-Jul-12 05:21N 54°34' E 005°01'713.1
2018-Jul-12 04:48N 54°40' E 005°08'413.1
2018-Jul-12 04:30N 54°43' E 005°12'2413.5
2018-Jul-12 02:41N 55°04' E 005°36'513.6
2018-Jul-12 02:21N 55°07' E 005°40'513.6
2018-Jul-12 02:00N 55°12' E 005°44'18013.2
2018-Jul-11 12:25N 57°35' E 008°59'513.0
2018-Jul-11 12:01N 57°38' E 009°08'612.9
2018-Jul-11 11:31N 57°39' E 009°20'612.9
2018-Jul-11 11:01N 57°42' E 009°31'612.5
2018-Jul-11 10:31N 57°43' E 009°42'612.4
2018-Jul-11 10:01N 57°45' E 009°54'612.5
2018-Jul-11 09:30N 57°47' E 010°05'612.6
2018-Jul-11 09:01N 57°48' E 010°16'612.9
2018-Jul-11 08:31N 57°48' E 010°29'713.1
2018-Jul-11 08:00N 57°48' E 010°41'713.1
2018-Jul-11 07:31N 57°45' E 010°52'713.8
2018-Jul-11 07:00N 57°41' E 011°01'713.6
2018-Jul-11 06:30N 57°36' E 011°10'713.4
2018-Jul-11 06:00N 57°31' E 011°19'713.0
2018-Jul-11 05:30N 57°26' E 011°26'613.0
2018-Jul-11 05:00N 57°20' E 011°30'712.9
2018-Jul-11 04:30N 57°14' E 011°35'612.7
2018-Jul-11 04:00N 57°08' E 011°39'612.7
2018-Jul-11 03:30N 57°02' E 011°43'612.7
2018-Jul-11 03:00N 56°56' E 011°47'612.8
2018-Jul-11 02:30N 56°50' E 011°50'612.0
2018-Jul-11 02:00N 56°44' E 011°52'713.6
2018-Jul-11 01:30N 56°38' E 011°46'8711.6
2018-Jul-10 18:02N 55°14' E 011°06'112.5
2018-Jul-10 17:58N 55°13' E 011°06'612.8
2018-Jul-10 17:30N 55°08' E 011°03'612.7
2018-Jul-10 17:00N 55°01' E 011°02'612.1
2018-Jul-10 16:30N 54°56' E 010°56'612.6
2018-Jul-10 16:00N 54°50' E 010°52'510.6
2018-Jul-10 15:30N 54°45' E 010°52'510.5
2018-Jul-10 15:00N 54°40' E 010°57'713.2
2018-Jul-10 14:30N 54°37' E 011°07'713.1
2018-Jul-10 14:00N 54°34' E 011°17'713.1
2018-Jul-10 13:30N 54°31' E 011°27'713.3
2018-Jul-10 13:00N 54°29' E 011°38'713.2
2018-Jul-10 12:30N 54°26' E 011°49'713.8
2018-Jul-10 12:00N 54°26' E 012°00'9912.0
2018-Jul-10 03:45N 54°40' E 014°49'9513.2
2018-Jul-09 20:31N 54°56' E 017°32'012.6
2018-Jul-09 20:30N 54°56' E 017°32'1812.9
2018-Jul-09 19:06N 54°58' E 018°04'113.0
2018-Jul-09 19:00N 54°58' E 018°06'712.9
2018-Jul-09 18:27N 54°58' E 018°18'612.9
2018-Jul-09 18:00N 54°58' E 018°29'713.0
2018-Jul-09 17:30N 54°57' E 018°40'713.2
2018-Jul-09 17:00N 54°55' E 018°50'713.1
2018-Jul-09 16:30N 54°52' E 019°01'612.9
2018-Jul-09 16:00N 54°50' E 019°12'712.6
2018-Jul-09 15:29N 54°48' E 019°22'712.8
2018-Jul-09 14:59N 54°45' E 019°33'612.9
2018-Jul-09 14:30N 54°43' E 019°42'612.3
2018-Jul-09 14:00N 54°39' E 019°51'3 5.9
2018-Jul-09 13:30N 54°38' E 019°56'3 6.1
2018-Jul-09 12:58N 54°38' E 020°01'7 1.5
2018-Jul-09 08:17N 54°41' E 020°13'0 0.0
2018-Jul-09 07:53N 54°41' E 020°13'0 0.0
2018-Jul-09 07:23N 54°41' E 020°13'0 0.0
2018-Jul-09 06:26N 54°41' E 020°13'0 0.0
2018-Jul-09 05:59N 54°41' E 020°13'0 0.0
2018-Jul-09 05:17N 54°41' E 020°13'0 0.0
2018-Jul-09 04:53N 54°41' E 020°13'0 0.0
2018-Jul-09 04:29N 54°41' E 020°13'0 0.0
2018-Jul-09 02:32N 54°41' E 020°13'0 0.1
2018-Jul-09 02:29N 54°41' E 020°13'0 0.0
2018-Jul-09 01:50N 54°41' E 020°13'0 0.0
2018-Jul-09 01:26N 54°41' E 020°13'0 0.0
2018-Jul-09 00:53N 54°41' E 020°13'0 0.0
2018-Jul-08 23:38N 54°41' E 020°13'0 0.0
2018-Jul-08 23:11N 54°41' E 020°13'0 0.0
2018-Jul-08 22:59N 54°41' E 020°13'0 0.0
2018-Jul-08 22:26N 54°41' E 020°13'0 0.0
2018-Jul-08 21:47N 54°41' E 020°13'0 0.0
2018-Jul-08 21:29N 54°41' E 020°13'0 0.0
2018-Jul-08 18:41N 54°41' E 020°13'0 0.0
2018-Jul-08 18:23N 54°41' E 020°13'0 0.0
2018-Jul-08 17:59N 54°41' E 020°13'0 0.0
2018-Jul-08 17:23N 54°41' E 020°13'0 0.0
2018-Jul-08 16:56N 54°41' E 020°13'0 0.0
2018-Jul-08 16:29N 54°41' E 020°13'0 0.0
2018-Jul-08 15:59N 54°41' E 020°13'0 0.0
2018-Jul-08 15:29N 54°41' E 020°13'0 0.0
2018-Jul-08 14:59N 54°41' E 020°13'0 0.0
2018-Jul-08 14:26N 54°41' E 020°13'0 0.0
2018-Jul-08 13:59N 54°41' E 020°13'0 0.0
2018-Jul-08 13:29N 54°41' E 020°13'0 0.0
2018-Jul-08 12:50N 54°41' E 020°13'0 0.0
2018-Jul-08 12:29N 54°41' E 020°13'0 0.0
2018-Jul-08 11:59N 54°41' E 020°13'0 0.0
2018-Jul-08 11:29N 54°41' E 020°13'0 0.0
2018-Jul-08 10:59N 54°41' E 020°13'0 0.0
2018-Jul-08 10:29N 54°41' E 020°13'0 0.0
2018-Jul-08 08:56N 54°41' E 020°13'0 0.0
2018-Jul-08 06:35N 54°41' E 020°13'0 0.0
2018-Jul-08 06:20N 54°41' E 020°13'0 0.0
2018-Jul-08 05:47N 54°41' E 020°13'0 0.0
2018-Jul-08 05:23N 54°41' E 020°13'0 0.0
2018-Jul-08 04:59N 54°41' E 020°13'0 0.0
2018-Jul-08 04:26N 54°41' E 020°13'0 0.0
2018-Jul-08 03:59N 54°41' E 020°13'0 0.0
2018-Jul-08 03:29N 54°41' E 020°13'0 0.0
2018-Jul-08 02:59N 54°41' E 020°13'0 0.0
2018-Jul-08 02:29N 54°41' E 020°13'0 0.0
2018-Jul-08 01:50N 54°41' E 020°13'0 0.0
2018-Jul-07 07:40N 54°41' E 020°13'0 0.0
2018-Jul-07 07:20N 54°41' E 020°13'0 0.0
2018-Jul-07 06:35N 54°41' E 020°13'0 0.0
2018-Jul-07 06:08N 54°41' E 020°13'0 0.0
2018-Jul-07 05:50N 54°41' E 020°13'0 0.0
2018-Jul-07 03:22N 54°41' E 020°13'0 0.0
2018-Jul-07 02:41N 54°41' E 020°13'0 0.0
2018-Jul-07 02:26N 54°41' E 020°13'0 0.0
2018-Jul-07 01:49N 54°41' E 020°13'0 0.0
2018-Jul-07 01:28N 54°41' E 020°13'0 0.0
2018-Jul-07 00:38N 54°41' E 020°13'0 0.0
2018-Jul-07 00:29N 54°41' E 020°13'0 0.0
2018-Jul-06 04:55N 54°41' E 020°13'0 0.0
2018-Jul-06 04:28N 54°41' E 020°13'0 0.0
2018-Jul-06 02:25N 54°41' E 020°13'0 0.0
2018-Jul-06 01:31N 54°41' E 020°13'0 0.0
2018-Jul-06 00:43N 54°41' E 020°13'0 0.0
2018-Jul-06 00:28N 54°41' E 020°13'0 0.0
2018-Jul-05 23:58N 54°41' E 020°13'0 0.0
2018-Jul-05 23:28N 54°41' E 020°13'0 0.0
2018-Jul-05 11:59N 54°41' E 020°12'0 0.0
2018-Jul-05 11:23N 54°41' E 020°12'0 0.0
2018-Jul-05 10:59N 54°41' E 020°12'0 0.0
2018-Jul-05 07:47N 54°41' E 020°12'0 0.0
2018-Jul-05 07:26N 54°41' E 020°12'0 0.0
2018-Jul-05 06:26N 54°41' E 020°12'0 0.0
2018-Jul-05 05:50N 54°41' E 020°12'0 0.0
2018-Jul-05 05:29N 54°41' E 020°12'0 0.0
2018-Jul-05 04:59N 54°41' E 020°12'0 0.0
2018-Jul-05 04:29N 54°41' E 020°12'0 0.0
2018-Jul-05 03:59N 54°41' E 020°12'0 0.0
2018-Jul-05 03:26N 54°41' E 020°12'0 0.0
2018-Jul-05 02:53N 54°41' E 020°12'0 0.0
2018-Jul-05 02:29N 54°41' E 020°12'0 0.0
2018-Jul-05 01:53N 54°41' E 020°12'0 0.0
2018-Jul-05 01:17N 54°41' E 020°12'0 0.0
2018-Jul-05 00:41N 54°41' E 020°12'0 0.0
2018-Jul-05 00:29N 54°41' E 020°12'0 0.0
2018-Jul-04 23:47N 54°41' E 020°12'0 0.0
2018-Jul-04 23:29N 54°41' E 020°12'0 0.0
2018-Jul-04 22:59N 54°41' E 020°12'0 0.0
2018-Jul-04 22:29N 54°41' E 020°12'0 0.0
2018-Jul-04 21:59N 54°41' E 020°12'0 0.0
2018-Jul-04 21:26N 54°41' E 020°12'0 0.0
2018-Jul-04 20:53N 54°41' E 020°12'0 0.0
2018-Jul-04 20:29N 54°41' E 020°12'0 0.0
2018-Jul-04 19:35N 54°41' E 020°12'0 0.0
2018-Jul-04 19:29N 54°41' E 020°12'0 0.0
2018-Jul-04 18:59N 54°41' E 020°12'0 0.0
2018-Jul-04 18:29N 54°41' E 020°12'0 0.0
2018-Jul-04 17:59N 54°41' E 020°12'0 0.0
2018-Jul-04 17:29N 54°41' E 020°12'0 0.0
2018-Jul-04 16:41N 54°41' E 020°12'0 0.0
2018-Jul-04 14:05N 54°41' E 020°12'0 0.0
2018-Jul-04 13:59N 54°41' E 020°12'0 0.0
2018-Jul-04 13:29N 54°41' E 020°12'0 0.0
2018-Jul-04 10:47N 54°41' E 020°12'0 0.0
2018-Jul-04 10:23N 54°41' E 020°12'0 0.0
2018-Jul-04 09:47N 54°41' E 020°12'0 0.0
2018-Jul-04 09:29N 54°41' E 020°12'0 0.0
2018-Jul-04 08:59N 54°41' E 020°12'0 0.0
2018-Jul-04 08:23N 54°41' E 020°12'0 0.0
2018-Jul-04 07:59N 54°41' E 020°12'0 0.0
2018-Jul-04 07:29N 54°41' E 020°12'0 0.0
2018-Jul-04 06:53N 54°41' E 020°12'0 0.0
2018-Jul-04 06:29N 54°41' E 020°12'0 0.0
2018-Jul-04 05:47N 54°41' E 020°12'0 0.0
2018-Jul-04 05:14N 54°41' E 020°12'0 0.0
2018-Jul-04 04:59N 54°41' E 020°12'0 0.0
2018-Jul-04 04:23N 54°41' E 020°12'0 0.0
2018-Jul-04 03:56N 54°41' E 020°12'0 0.0
2018-Jul-04 03:29N 54°41' E 020°12'0 0.0
2018-Jul-04 02:59N 54°41' E 020°12'  

Dump ship's entire track history